Current Conditions
Clear
Conditions



Pressure
30.39 (inHG) - 1029.12 (mb)
Visibility

10.0 (mimiles) - 16.1 (km)
   Temperature
30  °F
-1°C
25  °F
Dewpoint
80  %
 Humidity
   Wind Speed
0  mph
0  kts
0  km/h
0  m/s
   Wind Direction
Calm
Due North
   Airport Data
KDWH
Location David Wayne Hooks Memorial 4.4 mi (7.08 km)
Metar :KDWH 130853Z AUTO 00000KT 10SM CLR M01/M04 A3039 RMK AO2 SLP293 T10111044 58004
Wed 13th November 03:53 am
   Raw Metar Info
Raw METAR is the most common format in the world for the transmission of observational weather data. It is highly standardized through the International Civil Aviation Organization (ICAO), which allows it to be understood throughout most of the world.
   API Info
Data Provided by
https://www.checkwx.com/weather/KDWH
   © Info
CSS/SVG/PHP scripts were developed by weather34.com for use in the weather34 template © 2015-2019

Guide Info provided by Metar-Wikipedia